Terminal Aerodrome Forecast
Issued by NWS

Current Version | Previous Version | Text Only | Print | Product List | Glossary Off
Versions: 1 2 3 4 5 6 7 8 9 10 11 12 13 14 15 16 17 18

197
FTUS41 KPBZ 152320
TAFMGW
TAF
KMGW 152320Z 1600/1624 18006KT P6SM -RA OVC080
     FM160300 20009KT 6SM -RA OVC020
     FM160600 21009KT P6SM OVC008
     FM160900 24009KT P6SM OVC015
     FM161200 24009KT P6SM OVC025
     FM161500 26012G22KT P6SM BKN025=

USA.gov is the U.S. government's official web portal to all federal, state and local government web resources and services.